createdAt,value
2023-02-22T00:02:54.932Z,6.37
2023-02-22T00:07:57.883Z,6.47
2023-02-22T00:13:00.307Z,7.10
2023-02-22T00:18:05.257Z,7.95
2023-02-22T00:23:10.397Z,6.82
2023-02-22T00:28:13.331Z,7.80
2023-02-22T00:33:16.778Z,6.20
2023-02-22T00:38:20.103Z,6.25
2023-02-22T00:43:22.722Z,6.55
2023-02-22T00:48:25.504Z,5.38
2023-02-22T00:53:28.163Z,7.40
2023-02-22T00:58:30.608Z,5.50
2023-02-22T01:03:35.509Z,5.13
2023-02-22T01:08:38.005Z,5.35
2023-02-22T01:13:40.462Z,5.72
2023-02-22T01:18:42.908Z,7.70
2023-02-22T01:23:46.754Z,7.43
2023-02-22T01:28:50.090Z,8.75
2023-02-22T01:33:54.095Z,7.13
2023-02-22T01:38:56.812Z,9.88
2023-02-22T01:43:59.353Z,7.43
2023-02-22T01:49:06.595Z,8.07
2023-02-22T01:54:35.377Z,8.10
2023-02-22T01:59:42.333Z,9.48
2023-02-22T02:04:46.096Z,9.98
2023-02-22T02:09:57.029Z,9.17
2023-02-22T02:15:23.702Z,7.38
2023-02-22T02:20:44.766Z,8.85
2023-02-22T02:25:56.821Z,7.85
2023-02-22T02:31:05.343Z,8.02
2023-02-22T02:36:18.371Z,9.63
2023-02-22T02:41:34.468Z,8.93
2023-02-22T02:47:11.441Z,7.50
2023-02-22T02:52:18.913Z,7.75
2023-02-22T02:57:25.049Z,9.70
2023-02-22T03:02:36.602Z,10.03
2023-02-22T03:08:12.222Z,8.30
2023-02-22T03:13:24.844Z,9.68
2023-02-22T03:18:43.314Z,10.10
2023-02-22T03:23:50.495Z,9.15
2023-02-22T03:28:56.240Z,9.17
2023-02-22T03:34:04.308Z,8.95
2023-02-22T03:39:16.301Z,10.38
2023-02-22T03:44:25.730Z,8.43
2023-02-22T03:49:40.532Z,7.05
2023-02-22T03:54:44.032Z,8.23
2023-02-22T03:59:47.306Z,8.93
2023-02-22T04:04:50.436Z,8.00
2023-02-22T04:09:53.112Z,9.90
2023-02-22T04:14:55.860Z,8.07
2023-02-22T04:19:59.364Z,10.40
2023-02-22T04:25:08.042Z,12.23
2023-02-22T04:30:11.937Z,10.02
2023-02-22T04:35:18.340Z,12.90
2023-02-22T04:40:21.030Z,10.93
2023-02-22T04:45:23.957Z,10.73
2023-02-22T04:50:26.925Z,11.35
2023-02-22T04:55:29.668Z,10.88
2023-02-22T05:00:32.225Z,9.70
2023-02-22T05:05:37.716Z,11.23
2023-02-22T05:10:40.286Z,8.30
2023-02-22T05:15:42.828Z,10.35
2023-02-22T05:20:45.286Z,12.55
2023-02-22T05:25:47.972Z,10.23
2023-02-22T05:30:50.518Z,9.30
2023-02-22T05:35:53.069Z,10.23
2023-02-22T05:40:55.667Z,8.60
2023-02-22T05:45:58.177Z,10.35
2023-02-22T05:51:00.885Z,10.18
2023-02-22T05:56:03.545Z,6.88
2023-02-22T06:01:08.899Z,8.30
2023-02-22T06:06:11.680Z,9.98
2023-02-22T06:11:14.532Z,9.13
2023-02-22T06:16:17.269Z,9.68
2023-02-22T06:21:19.985Z,8.18
2023-02-22T06:26:23.315Z,9.00
2023-02-22T06:31:25.830Z,7.20
2023-02-22T06:36:28.806Z,8.35
2023-02-22T06:41:37.232Z,7.85
2023-02-22T06:46:40.095Z,9.55
2023-02-22T06:51:42.932Z,10.07
2023-02-22T06:56:45.502Z,7.60
2023-02-22T07:01:51.757Z,8.98
2023-02-22T07:06:54.541Z,9.77
2023-02-22T07:11:57.165Z,8.25
2023-02-22T07:16:59.665Z,9.10
2023-02-22T07:22:02.138Z,9.05
2023-02-22T07:27:04.714Z,9.90
2023-02-22T07:32:07.213Z,9.95
2023-02-22T07:37:12.227Z,11.38
2023-02-22T07:42:14.663Z,10.03
2023-02-22T07:47:21.083Z,10.15
2023-02-22T07:52:26.072Z,10.40
2023-02-22T07:57:28.605Z,12.48
2023-02-22T08:02:31.234Z,10.80
2023-02-22T08:07:33.992Z,12.67
2023-02-22T08:12:38.359Z,13.73
2023-02-22T08:17:41.340Z,10.35
2023-02-22T08:22:44.817Z,11.30
2023-02-22T08:27:47.967Z,10.77
2023-02-22T08:32:51.608Z,10.73
2023-02-22T08:38:00.328Z,8.70
2023-02-22T08:43:04.071Z,9.90
2023-02-22T08:48:07.035Z,9.90
2023-02-22T08:53:11.176Z,10.02
2023-02-22T08:58:14.239Z,10.27
2023-02-22T09:03:19.691Z,9.18
2023-02-22T09:08:22.254Z,10.63
2023-02-22T09:13:24.757Z,9.45
2023-02-22T09:18:39.039Z,10.18
2023-02-22T09:23:47.768Z,11.33
2023-02-22T09:28:51.026Z,13.93
2023-02-22T09:33:53.498Z,11.40
2023-02-22T09:38:59.192Z,15.77
2023-02-22T09:44:30.680Z,12.60
2023-02-22T09:49:53.370Z,12.90
2023-02-22T09:55:06.525Z,12.40
2023-02-22T10:00:22.544Z,10.43
2023-02-22T10:05:37.891Z,11.88
2023-02-22T10:10:46.596Z,12.40
2023-02-22T10:16:27.448Z,12.23
2023-02-22T10:22:01.029Z,12.48
2023-02-22T10:27:05.234Z,14.65
2023-02-22T10:32:25.742Z,12.30
2023-02-22T10:37:34.860Z,16.33
2023-02-22T10:42:37.467Z,13.37
2023-02-22T10:47:39.934Z,14.55
2023-02-22T10:52:42.592Z,13.30
2023-02-22T10:57:47.920Z,16.98
2023-02-22T11:02:59.069Z,16.60
2023-02-22T11:08:21.864Z,15.87
2023-02-22T11:13:29.475Z,16.75
2023-02-22T11:18:34.865Z,18.30
2023-02-22T11:23:39.474Z,14.18
2023-02-22T11:28:56.310Z,15.50
2023-02-22T11:34:02.350Z,14.50
2023-02-22T11:39:22.660Z,15.82
2023-02-22T11:44:31.755Z,15.13
2023-02-22T11:49:43.660Z,10.82
2023-02-22T11:55:02.467Z,13.80
2023-02-22T12:00:16.581Z,14.10
2023-02-22T12:06:09.774Z,13.52
2023-02-22T12:11:28.636Z,11.68
2023-02-22T12:16:46.462Z,13.07
2023-02-22T12:21:58.301Z,15.43
2023-02-22T12:27:18.830Z,18.40
2023-02-22T12:32:46.598Z,16.33
2023-02-22T12:37:52.208Z,14.23
2023-02-22T12:43:22.948Z,14.95
2023-02-22T12:48:32.028Z,13.35
2023-02-22T12:53:38.602Z,11.20
2023-02-22T12:58:54.357Z,16.83
2023-02-22T13:03:57.132Z,17.80
2023-02-22T13:09:11.575Z,13.13
2023-02-22T13:14:30.448Z,17.98
2023-02-22T13:19:53.846Z,16.53
2023-02-22T13:25:03.367Z,19.33
2023-02-22T13:30:15.109Z,15.90
2023-02-22T13:35:49.968Z,17.70
2023-02-22T13:41:23.781Z,16.88
2023-02-22T13:46:48.184Z,16.87
2023-02-22T13:52:14.297Z,16.38
2023-02-22T13:57:25.287Z,19.85
2023-02-22T14:02:36.983Z,15.45
2023-02-22T14:07:48.265Z,20.48
2023-02-22T14:12:50.994Z,17.47
2023-02-22T14:18:05.719Z,19.38
2023-02-22T14:23:26.263Z,18.17
2023-02-22T14:28:34.885Z,13.18
2023-02-22T14:34:02.216Z,23.33
2023-02-22T14:39:27.131Z,15.13
2023-02-22T14:44:41.810Z,18.58
2023-02-22T14:49:48.427Z,21.35
2023-02-22T14:55:14.367Z,18.52
2023-02-22T15:00:31.212Z,15.70
2023-02-22T15:05:38.735Z,23.03
2023-02-22T15:10:52.154Z,17.65
2023-02-22T15:16:01.365Z,19.42
2023-02-22T15:21:26.423Z,23.38
2023-02-22T15:26:49.161Z,18.30
2023-02-22T15:31:59.554Z,14.57
2023-02-22T15:37:19.779Z,20.52
2023-02-22T15:42:23.654Z,18.08
2023-02-22T15:47:32.389Z,20.98
2023-02-22T15:52:35.191Z,19.25
2023-02-22T15:57:37.874Z,17.97
2023-02-22T16:02:42.513Z,16.88
2023-02-22T16:07:50.303Z,20.98
2023-02-22T16:13:31.393Z,23.30
2023-02-22T16:18:37.429Z,27.33
2023-02-22T16:23:51.709Z,24.67
2023-02-22T16:29:03.497Z,22.60
2023-02-22T16:34:10.410Z,21.40
2023-02-22T16:39:28.075Z,15.68
2023-02-22T16:44:30.471Z,22.02
2023-02-22T16:49:32.964Z,23.23
2023-02-22T16:54:41.581Z,24.10
2023-02-22T16:59:44.165Z,20.60
2023-02-22T17:04:49.851Z,19.17
2023-02-22T17:09:52.522Z,19.25
2023-02-22T17:14:55.338Z,19.93
2023-02-22T17:19:58.002Z,26.10
2023-02-22T17:25:00.701Z,27.75
2023-02-22T17:30:07.281Z,19.13
2023-02-22T17:35:10.136Z,27.25
2023-02-22T17:40:14.924Z,18.67
2023-02-22T17:45:17.680Z,20.83
2023-02-22T17:50:21.632Z,21.70
2023-02-22T17:55:24.175Z,26.45
2023-02-22T18:00:33.698Z,16.25
2023-02-22T18:11:05.691Z,19.02
2023-02-22T18:16:10.270Z,19.00
2023-02-22T18:21:15.530Z,14.10
2023-02-22T18:26:20.330Z,15.55
2023-02-22T18:31:23.739Z,15.50
2023-02-22T18:36:26.942Z,12.85
2023-02-22T18:41:29.608Z,14.68
2023-02-22T18:46:32.611Z,21.35
2023-02-22T18:51:37.783Z,17.23
2023-02-22T18:56:41.238Z,26.30
2023-02-22T19:01:49.076Z,14.38
2023-02-22T19:06:55.099Z,15.90
2023-02-22T19:11:57.905Z,16.58
2023-02-22T19:17:02.654Z,14.38
2023-02-22T19:22:05.163Z,24.20
2023-02-22T19:27:07.725Z,21.30
2023-02-22T19:32:11.679Z,14.23
2023-02-22T19:37:15.587Z,23.92
2023-02-22T19:42:18.301Z,14.38
2023-02-22T19:47:22.828Z,20.37
2023-02-22T19:52:25.391Z,19.55
2023-02-22T19:57:30.125Z,14.57
2023-02-22T20:02:32.584Z,18.20
2023-02-22T20:07:35.079Z,16.60
2023-02-22T20:12:37.477Z,19.47
2023-02-22T20:17:39.964Z,14.52
2023-02-22T20:22:42.631Z,20.50
2023-02-22T20:27:45.214Z,17.83
2023-02-22T20:32:47.981Z,13.52
2023-02-22T20:37:50.638Z,21.63
2023-02-22T20:42:53.125Z,17.40
2023-02-22T20:47:56.172Z,19.15
2023-02-22T20:52:59.094Z,19.95
2023-02-22T20:58:01.622Z,19.08
2023-02-22T21:03:04.153Z,17.57
2023-02-22T21:08:06.753Z,21.13
2023-02-22T21:13:11.527Z,12.15
2023-02-22T21:18:15.043Z,21.40
2023-02-22T21:23:17.470Z,18.48
2023-02-22T21:28:20.496Z,17.33
2023-02-22T21:33:22.955Z,16.95
2023-02-22T21:38:25.492Z,15.30
2023-02-22T21:43:28.215Z,15.68
2023-02-22T21:48:31.327Z,13.48
2023-02-22T21:53:34.019Z,18.43
2023-02-22T21:58:37.066Z,19.02
2023-02-22T22:03:40.760Z,15.90
2023-02-22T22:08:43.975Z,10.80
2023-02-22T22:13:46.600Z,13.40
2023-02-22T22:18:49.304Z,18.77
2023-02-22T22:23:56.353Z,15.57
2023-02-22T22:28:59.873Z,13.07
2023-02-22T22:34:02.502Z,12.02
2023-02-22T22:39:14.760Z,15.32
2023-02-22T22:44:22.601Z,13.87
2023-02-22T22:49:27.381Z,21.38
2023-02-22T22:54:29.984Z,17.65
2023-02-22T22:59:50.629Z,22.15
2023-02-22T23:04:53.126Z,16.48
2023-02-22T23:09:56.871Z,9.90
2023-02-22T23:14:59.442Z,10.55
2023-02-22T23:20:01.921Z,17.38
2023-02-22T23:25:07.408Z,27.70
2023-02-22T23:30:15.132Z,19.48
2023-02-22T23:35:19.410Z,18.23
2023-02-22T23:40:21.978Z,19.00
2023-02-22T23:45:25.405Z,21.70
2023-02-22T23:50:29.824Z,16.27
2023-02-22T23:55:33.429Z,17.60
